Time;durP1;ratioP1;P1;durP2;ratioP2;P2;SDS_P1;SDS_P2;PMS_P1;PMS_P2;Temp;Humidity;BMP_temperature;BMP_pressure;BME280_temperature;BME280_humidity;BME280_pressure;Samples;Min_cycle;Max_cycle;Signal;HPM_P1;HPM_P2
2023/03/07 00:01:00;;;;;;;1999.90;999.90;;;;;;;;;;5093034;28;20111;-76
2023/03/07 00:03:26;;;;;;;1999.90;999.90;;;;;;;;;;5092787;28;20560;-74
2023/03/07 00:06:06;;;;;;;1999.90;999.90;;;;;;;;;;5092825;28;20435;-75
2023/03/07 00:08:32;;;;;;;1999.90;999.90;;;;;;;;;;5091653;28;20051;-75
2023/03/07 00:11:02;;;;;;;1999.90;999.90;;;;;;;;;;5093181;28;20032;-77
2023/03/07 00:13:29;;;;;;;1999.90;999.90;;;;;;;;;;5092927;28;20091;-75
2023/03/07 00:15:55;;;;;;;1999.90;999.90;;;;;;;;;;5092934;28;20046;-76
2023/03/07 00:18:21;;;;;;;1999.90;999.90;;;;;;;;;;5091722;28;20056;-75
2023/03/07 00:20:56;;;;;;;1999.90;999.90;;;;;;;;;;5092738;28;20542;-76
2023/03/07 00:23:22;;;;;;;1999.90;999.90;;;;;;;;;;5091248;28;20435;-74
2023/03/07 00:25:55;;;;;;;1999.90;999.90;;;;;;;;;;5092757;28;20066;-76
2023/03/07 00:28:21;;;;;;;1999.90;999.90;;;;;;;;;;5092805;28;20028;-75
2023/03/07 00:30:48;;;;;;;1999.90;999.90;;;;;;;;;;5092751;28;20024;-75
2023/03/07 00:33:14;;;;;;;1999.90;999.90;;;;;;;;;;5092760;28;20062;-75
2023/03/07 00:35:39;;;;;;;1999.90;999.90;;;;;;;;;;5092903;28;20020;-75
2023/03/07 00:38:06;;;;;;;1999.90;999.90;;;;;;;;;;5092658;28;20371;-76
2023/03/07 00:40:32;;;;;;;1999.90;999.90;;;;;;;;;;5092553;28;20028;-75
2023/03/07 00:42:57;;;;;;;1999.90;999.90;;;;;;;;;;5091217;28;20123;-75
2023/03/07 00:45:24;;;;;;;1999.90;999.90;;;;;;;;;;5092568;28;20020;-75
2023/03/07 00:47:50;;;;;;;1999.90;999.90;;;;;;;;;;5092528;28;20464;-75
2023/03/07 00:50:16;;;;;;;1999.90;999.90;;;;;;;;;;5092602;28;20098;-75
2023/03/07 00:52:42;;;;;;;1999.90;999.90;;;;;;;;;;5091292;28;20406;-75
2023/03/07 00:55:08;;;;;;;1999.90;999.90;;;;;;;;;;5092565;28;20492;-75
2023/03/07 00:57:34;;;;;;;1999.90;999.90;;;;;;;;;;5095524;28;20090;-76
2023/03/07 01:00:00;;;;;;;1999.90;999.90;;;;;;;;;;5098697;28;20476;-75
2023/03/07 01:02:26;;;;;;;1999.90;999.90;;;;;;;;;;5098102;28;20032;-76
2023/03/07 01:04:52;;;;;;;1999.90;999.90;;;;;;;;;;5097405;28;20528;-75
2023/03/07 01:07:18;;;;;;;1999.90;999.90;;;;;;;;;;5096662;28;20036;-76
2023/03/07 01:09:46;;;;;;;1999.90;999.90;;;;;;;;;;5096424;28;20025;-75
2023/03/07 01:12:12;;;;;;;1999.90;999.90;;;;;;;;;;5095010;28;20392;-76
2023/03/07 01:14:38;;;;;;;1999.90;999.90;;;;;;;;;;5096200;28;20024;-77
2023/03/07 01:17:04;;;;;;;1999.90;999.90;;;;;;;;;;5095770;28;20044;-75
2023/03/07 01:19:30;;;;;;;1999.90;999.90;;;;;;;;;;5096054;28;20020;-75
2023/03/07 01:21:56;;;;;;;1999.90;999.90;;;;;;;;;;5096685;28;20035;-75
2023/03/07 01:24:22;;;;;;;1999.90;999.90;;;;;;;;;;5096265;28;20028;-75
2023/03/07 01:26:48;;;;;;;1999.90;999.90;;;;;;;;;;5096386;28;20482;-75
2023/03/07 01:29:14;;;;;;;1999.90;999.90;;;;;;;;;;5095996;28;20380;-76
2023/03/07 01:31:40;;;;;;;1999.90;999.90;;;;;;;;;;5097670;28;20031;-75
2023/03/07 01:34:06;;;;;;;1999.90;999.90;;;;;;;;;;5097437;28;20035;-75
2023/03/07 01:36:33;;;;;;;1999.90;999.90;;;;;;;;;;5096125;28;20482;-75
2023/03/07 01:39:05;;;;;;;1999.90;999.90;;;;;;;;;;5097117;28;20040;-75
2023/03/07 01:41:31;;;;;;;1999.90;999.90;;;;;;;;;;5095862;28;20053;-75
2023/03/07 01:44:01;;;;;;;1999.90;999.90;;;;;;;;;;5096144;28;20016;-75
2023/03/07 01:46:33;;;;;;;1999.90;999.90;;;;;;;;;;5096222;28;20024;-75
2023/03/07 01:49:14;;;;;;;1999.90;999.90;;;;;;;;;;5095633;28;20028;-75
2023/03/07 01:51:41;;;;;;;1999.90;999.90;;;;;;;;;;5096082;28;20602;-75
2023/03/07 01:54:08;;;;;;;1999.90;999.90;;;;;;;;;;5096467;28;20141;-76
2023/03/07 01:56:36;;;;;;;1999.90;999.90;;;;;;;;;;5096393;28;20097;-76
2023/03/07 01:59:03;;;;;;;1999.90;999.90;;;;;;;;;;5095608;28;20091;-75
2023/03/07 02:01:29;;;;;;;1999.90;999.90;;;;;;;;;;5096160;28;20035;-76
2023/03/07 02:04:02;;;;;;;1999.90;999.90;;;;;;;;;;5097332;28;20103;-76
2023/03/07 02:06:30;;;;;;;1999.90;999.90;;;;;;;;;;5102421;28;20050;-75
2023/03/07 02:08:56;;;;;;;1999.90;999.90;;;;;;;;;;5098650;28;20016;-76
2023/03/07 02:11:22;;;;;;;1999.90;999.90;;;;;;;;;;5104023;28;20032;-76
2023/03/07 02:13:48;;;;;;;1999.90;999.90;;;;;;;;;;5101459;28;20481;-75
2023/03/07 02:16:14;;;;;;;1999.90;999.90;;;;;;;;;;5102995;28;20093;-75
2023/03/07 02:18:43;;;;;;;1999.90;999.90;;;;;;;;;;5097938;28;20099;-75
2023/03/07 02:21:15;;;;;;;1999.90;999.90;;;;;;;;;;5096850;28;20020;-75
2023/03/07 02:24:01;;;;;;;8.98;7.72;;;;;;;;;;5095845;28;20032;-75
2023/03/07 02:26:30;;;;;;;8.65;6.78;;;;;;;;;;5068402;28;20032;-75
2023/03/07 02:28:59;;;;;;;9.52;8.40;;;;;;;;;;5100909;28;20035;-76
2023/03/07 02:31:26;;;;;;;8.05;7.20;;;;;;;;;;5095601;28;20040;-75
2023/03/07 02:33:51;;;;;;;9.25;7.30;;;;;;;;;;5095476;28;20024;-75
2023/03/07 02:36:22;;;;;;;8.25;7.45;;;;;;;;;;5095783;28;20023;-75
2023/03/07 02:38:50;;;;;;;8.90;8.02;;;;;;;;;;5094115;28;20400;-75
2023/03/07 02:41:20;;;;;;;8.52;7.70;;;;;;;;;;5093980;28;20028;-75
2023/03/07 02:43:46;;;;;;;8.85;7.95;;;;;;;;;;5094163;28;20431;-75
2023/03/07 02:46:12;;;;;;;8.15;7.32;;;;;;;;;;5094141;28;20024;-76
2023/03/07 02:48:38;;;;;;;7.75;7.05;;;;;;;;;;5095802;28;20032;-74
2023/03/07 02:51:04;;;;;;;11.18;8.40;;;;;;;;;;5101618;28;20023;-75
2023/03/07 02:53:31;;;;;;;11.95;7.38;;;;;;;;;;5100760;28;20103;-75
2023/03/07 02:55:56;;;;;;;8.35;6.97;;;;;;;;;;5097547;28;20402;-75
2023/03/07 02:58:23;;;;;;;9.60;8.55;;;;;;;;;;5096426;28;20024;-75
2023/03/07 03:00:49;;;;;;;11.30;7.72;;;;;;;;;;5096324;28;20097;-75
2023/03/07 03:03:15;;;;;;;8.93;7.82;;;;;;;;;;5098809;28;20373;-75
2023/03/07 03:05:41;;;;;;;8.30;7.50;;;;;;;;;;5080691;28;20020;-75
2023/03/07 03:08:08;;;;;;;8.63;7.68;;;;;;;;;;5096952;28;20034;-75
2023/03/07 03:10:34;;;;;;;9.43;7.13;;;;;;;;;;5094319;28;20024;-75
2023/03/07 03:13:00;;;;;;;10.95;7.68;;;;;;;;;;5097876;28;20024;-75
2023/03/07 03:15:30;;;;;;;8.18;7.38;;;;;;;;;;5099082;28;20036;-75
2023/03/07 03:17:56;;;;;;;7.80;6.97;;;;;;;;;;5103120;28;20117;-76
2023/03/07 03:20:24;;;;;;;7.93;7.22;;;;;;;;;;5102846;28;20490;-75
2023/03/07 03:22:50;;;;;;;8.98;7.93;;;;;;;;;;5101532;28;20032;-76
2023/03/07 03:25:16;;;;;;;7.85;7.07;;;;;;;;;;5099359;28;20102;-75
2023/03/07 03:27:43;;;;;;;11.68;7.43;;;;;;;;;;5098493;28;20027;-76
2023/03/07 03:30:10;;;;;;;7.85;7.05;;;;;;;;;;5100641;28;20020;-75
2023/03/07 03:32:36;;;;;;;7.65;6.88;;;;;;;;;;5101546;28;20024;-76
2023/03/07 03:35:03;;;;;;;8.25;7.50;;;;;;;;;;5094534;28;20012;-76
2023/03/07 03:37:29;;;;;;;8.13;7.30;;;;;;;;;;5094709;28;20492;-75
2023/03/07 03:39:55;;;;;;;7.80;7.00;;;;;;;;;;5093459;28;20034;-76
2023/03/07 03:42:21;;;;;;;11.88;7.43;;;;;;;;;;5093259;28;20035;-75
2023/03/07 03:44:48;;;;;;;8.23;7.00;;;;;;;;;;5093363;28;20058;-76
2023/03/07 03:47:14;;;;;;;7.90;7.22;;;;;;;;;;5092102;28;20457;-75
2023/03/07 03:49:40;;;;;;;8.38;7.13;;;;;;;;;;5093815;28;20043;-75
2023/03/07 03:52:06;;;;;;;7.63;6.95;;;;;;;;;;5092403;28;20027;-75
2023/03/07 03:54:32;;;;;;;8.40;7.30;;;;;;;;;;5091908;28;20476;-75
2023/03/07 03:56:58;;;;;;;7.50;6.72;;;;;;;;;;5093063;28;20216;-75
2023/03/07 03:59:24;;;;;;;8.18;7.45;;;;;;;;;;5093058;28;20113;-75
2023/03/07 04:01:51;;;;;;;8.95;7.38;;;;;;;;;;5092906;28;20023;-75
2023/03/07 04:04:17;;;;;;;9.05;7.25;;;;;;;;;;5092988;28;20114;-75
2023/03/07 04:06:43;;;;;;;7.25;6.65;;;;;;;;;;5091999;28;20116;-76
2023/03/07 04:09:09;;;;;;;7.65;7.05;;;;;;;;;;5093340;28;20068;-75
2023/03/07 04:11:35;;;;;;;8.23;7.15;;;;;;;;;;5095246;28;20020;-76
2023/03/07 04:14:02;;;;;;;8.50;7.63;;;;;;;;;;5095325;28;20043;-75
2023/03/07 04:16:28;;;;;;;7.68;6.97;;;;;;;;;;5094869;28;20040;-76
2023/03/07 04:18:54;;;;;;;8.65;7.30;;;;;;;;;;5094608;28;20077;-75
2023/03/07 04:21:20;;;;;;;9.20;7.57;;;;;;;;;;5093801;28;20045;-76
2023/03/07 04:23:49;;;;;;;8.13;7.32;;;;;;;;;;5093696;28;20422;-77
2023/03/07 04:26:15;;;;;;;7.95;6.97;;;;;;;;;;5091582;28;20028;-75
2023/03/07 04:28:47;;;;;;;7.82;7.05;;;;;;;;;;5093301;28;20041;-76
2023/03/07 04:31:15;;;;;;;10.60;7.40;;;;;;;;;;5095885;28;20345;-76
2023/03/07 04:33:42;;;;;;;8.75;7.78;;;;;;;;;;5097812;28;20056;-76
2023/03/07 04:36:08;;;;;;;8.63;7.15;;;;;;;;;;5097609;28;20062;-76
2023/03/07 04:38:34;;;;;;;9.07;8.18;;;;;;;;;;5097441;28;20026;-75
2023/03/07 04:41:00;;;;;;;7.95;7.15;;;;;;;;;;5095731;28;20471;-75
2023/03/07 04:43:26;;;;;;;9.40;7.72;;;;;;;;;;5096377;28;20038;-75
2023/03/07 04:45:53;;;;;;;12.93;8.10;;;;;;;;;;5096746;28;20016;-75
2023/03/07 04:48:19;;;;;;;9.38;7.72;;;;;;;;;;5096437;28;20035;-75
2023/03/07 04:50:47;;;;;;;7.80;7.00;;;;;;;;;;5095102;28;20028;-75
2023/03/07 04:53:13;;;;;;;8.70;7.53;;;;;;;;;;5096501;28;20032;-75
2023/03/07 04:55:39;;;;;;;8.68;6.93;;;;;;;;;;5096578;28;20024;-75
2023/03/07 04:58:11;;;;;;;8.52;7.05;;;;;;;;;;5096908;28;20031;-75
2023/03/07 05:00:38;;;;;;;7.20;6.50;;;;;;;;;;5095516;28;20493;-75
2023/03/07 05:03:04;;;;;;;7.25;6.63;;;;;;;;;;5096295;28;20089;-75
2023/03/07 05:05:30;;;;;;;6.15;5.65;;;;;;;;;;5096421;28;20099;-75
2023/03/07 05:07:56;;;;;;;7.05;6.45;;;;;;;;;;5094697;28;20401;-75
2023/03/07 05:10:22;;;;;;;9.50;6.28;;;;;;;;;;5096259;28;20026;-75
2023/03/07 05:12:48;;;;;;;6.90;5.80;;;;;;;;;;5094662;28;20028;-75
2023/03/07 05:15:14;;;;;;;7.18;6.53;;;;;;;;;;5095721;28;20024;-76
2023/03/07 05:17:40;;;;;;;6.88;6.18;;;;;;;;;;5095812;28;20027;-75
2023/03/07 05:20:09;;;;;;;7.32;6.63;;;;;;;;;;5095727;28;20028;-76
2023/03/07 05:22:35;;;;;;;6.68;6.15;;;;;;;;;;5096075;28;20035;-75
2023/03/07 05:25:01;;;;;;;7.22;6.13;;;;;;;;;;5096039;28;20020;-75
2023/03/07 05:27:27;;;;;;;8.45;6.68;;;;;;;;;;5094404;28;20028;-76
2023/03/07 05:29:53;;;;;;;8.52;6.78;;;;;;;;;;5095645;28;20024;-76
2023/03/07 05:32:19;;;;;;;7.28;5.97;;;;;;;;;;5094238;28;20073;-75
2023/03/07 05:34:47;;;;;;;9.25;6.03;;;;;;;;;;5095389;28;20491;-76
2023/03/07 05:37:13;;;;;;;7.63;6.03;;;;;;;;;;5095578;28;20020;-75
2023/03/07 05:39:39;;;;;;;8.15;6.15;;;;;;;;;;5095514;28;20021;-75
2023/03/07 05:42:05;;;;;;;6.60;5.97;;;;;;;;;;5094139;28;20433;-75
2023/03/07 05:44:31;;;;;;;7.70;5.97;;;;;;;;;;5094540;28;20490;-74
2023/03/07 05:46:57;;;;;;;7.13;6.43;;;;;;;;;;5094184;28;20035;-75
2023/03/07 05:49:23;;;;;;;6.63;5.88;;;;;;;;;;5095386;28;20095;-75
2023/03/07 05:51:50;;;;;;;7.30;5.68;;;;;;;;;;5093974;28;20016;-75
2023/03/07 05:54:16;;;;;;;8.90;5.47;;;;;;;;;;5093984;28;20055;-75
2023/03/07 05:56:42;;;;;;;16.23;6.85;;;;;;;;;;5095693;28;20020;-75
2023/03/07 05:59:10;;;;;;;8.80;6.20;;;;;;;;;;5096393;28;20460;-75
2023/03/07 06:01:36;;;;;;;6.90;6.20;;;;;;;;;;5101647;28;20105;-75
2023/03/07 06:04:02;;;;;;;6.38;5.78;;;;;;;;;;5095863;28;20044;-75
2023/03/07 06:06:28;;;;;;;6.88;6.03;;;;;;;;;;5094238;28;20119;-75
2023/03/07 06:08:54;;;;;;;6.07;5.60;;;;;;;;;;5095765;28;20055;-75
2023/03/07 06:11:20;;;;;;;6.90;5.88;;;;;;;;;;5094346;28;20114;-76
2023/03/07 06:13:46;;;;;;;10.30;6.32;;;;;;;;;;5095770;28;20449;-75
2023/03/07 06:16:12;;;;;;;7.50;6.88;;;;;;;;;;5094123;28;20125;-75
2023/03/07 06:18:38;;;;;;;8.38;7.55;;;;;;;;;;5093536;28;20047;-76
2023/03/07 06:21:05;;;;;;;8.07;7.38;;;;;;;;;;5093449;28;20021;-76
2023/03/07 06:23:32;;;;;;;1999.90;999.90;;;;;;;;;;5093155;28;20372;-75
2023/03/07 06:25:59;;;;;;;56.22;48.00;;;;;;;;;;5093127;28;20391;-76
2023/03/07 06:28:25;;;;;;;1999.90;999.90;;;;;;;;;;5093106;28;20119;-76
2023/03/07 06:30:51;;;;;;;1999.90;999.90;;;;;;;;;;5094264;28;20024;-76
2023/03/07 06:33:17;;;;;;;1999.90;999.90;;;;;;;;;;5094422;28;20077;-76
2023/03/07 06:35:43;;;;;;;1999.90;999.90;;;;;;;;;;5092907;28;20031;-75
2023/03/07 06:38:10;;;;;;;1999.90;999.90;;;;;;;;;;5094521;28;20504;-76
2023/03/07 06:40:36;;;;;;;1999.90;999.90;;;;;;;;;;5093705;28;20375;-76
2023/03/07 06:43:02;;;;;;;1999.90;999.90;;;;;;;;;;5096296;28;20060;-76
2023/03/07 06:45:28;;;;;;;1999.90;999.90;;;;;;;;;;5094554;28;20099;-75
2023/03/07 06:47:54;;;;;;;1999.90;999.90;;;;;;;;;;5094383;28;20153;-76
2023/03/07 06:50:20;;;;;;;1999.90;999.90;;;;;;;;;;5094364;28;20482;-75
2023/03/07 06:52:48;;;;;;;1999.90;999.90;;;;;;;;;;5092611;28;20085;-76
2023/03/07 06:55:14;;;;;;;1999.90;999.90;;;;;;;;;;5092328;28;20020;-76
2023/03/07 06:57:41;;;;;;;1999.90;999.90;;;;;;;;;;5093871;28;20103;-77
2023/03/07 07:00:07;;;;;;;1999.90;999.90;;;;;;;;;;5093771;28;20052;-76
2023/03/07 07:02:33;;;;;;;1999.90;999.90;;;;;;;;;;5092158;28;20035;-75
2023/03/07 07:04:59;;;;;;;1999.90;999.90;;;;;;;;;;5092505;28;20016;-76
2023/03/07 07:07:26;;;;;;;1999.90;999.90;;;;;;;;;;5092422;28;20024;-76
2023/03/07 07:09:52;;;;;;;1999.90;999.90;;;;;;;;;;5092558;28;20021;-77
2023/03/07 07:12:18;;;;;;;1999.90;999.90;;;;;;;;;;5092580;28;20024;-76
2023/03/07 07:14:44;;;;;;;1999.90;999.90;;;;;;;;;;5092224;28;20024;-76
2023/03/07 07:17:10;;;;;;;1999.90;999.90;;;;;;;;;;5093302;28;20040;-76
2023/03/07 07:19:36;;;;;;;1999.90;999.90;;;;;;;;;;5094301;28;20024;-76
2023/03/07 07:22:02;;;;;;;1999.90;999.90;;;;;;;;;;5094653;28;20058;-76
2023/03/07 07:24:29;;;;;;;1999.90;999.90;;;;;;;;;;5096121;28;20028;-77
2023/03/07 07:26:55;;;;;;;1999.90;999.90;;;;;;;;;;5095430;28;20153;-76
2023/03/07 07:29:21;;;;;;;1999.90;999.90;;;;;;;;;;5094976;28;20020;-77
2023/03/07 07:31:48;;;;;;;1999.90;999.90;;;;;;;;;;5094527;28;20382;-76
2023/03/07 07:34:14;;;;;;;1999.90;999.90;;;;;;;;;;5094459;28;20107;-76
2023/03/07 07:36:40;;;;;;;1999.90;999.90;;;;;;;;;;5094400;28;20034;-77
2023/03/07 07:39:09;;;;;;;1999.90;999.90;;;;;;;;;;5094617;28;20024;-76
2023/03/07 07:41:35;;;;;;;1999.90;999.90;;;;;;;;;;5094645;28;20071;-75
2023/03/07 07:44:01;;;;;;;18.65;17.95;;;;;;;;;;5093635;28;20488;-75
2023/03/07 07:46:28;;;;;;;19.05;18.30;;;;;;;;;;5093181;28;20016;-76
2023/03/07 07:48:54;;;;;;;20.50;19.70;;;;;;;;;;5093333;28;20042;-75
2023/03/07 07:51:20;;;;;;;1999.90;999.90;;;;;;;;;;5093223;28;20103;-76
2023/03/07 07:53:46;;;;;;;1999.90;999.90;;;;;;;;;;5093320;28;20052;-75
2023/03/07 07:56:12;;;;;;;1999.90;999.90;;;;;;;;;;5093349;28;20602;-76
2023/03/07 07:58:39;;;;;;;1999.90;999.90;;;;;;;;;;5092357;28;20065;-76
2023/03/07 08:01:31;;;;;;;1999.90;999.90;;;;;;;;;;5092241;28;20391;-76
2023/03/07 08:03:57;;;;;;;14.18;4.97;;;;;;;;;;5089989;28;20055;-74
2023/03/07 08:06:25;;;;;;;7.82;4.65;;;;;;;;;;5093649;28;20023;-74
2023/03/07 08:08:51;;;;;;;10.10;4.40;;;;;;;;;;5096240;28;20046;-75
2023/03/07 08:11:18;;;;;;;11.15;4.70;;;;;;;;;;5095870;28;20545;-76
2023/03/07 08:13:44;;;;;;;8.77;5.25;;;;;;;;;;5097028;28;20117;-77
2023/03/07 08:16:10;;;;;;;9.65;4.28;;;;;;;;;;5097236;28;20048;-78
2023/03/07 08:18:36;;;;;;;8.38;4.47;;;;;;;;;;5096247;28;20066;-77
2023/03/07 08:21:02;;;;;;;10.35;4.85;;;;;;;;;;5095067;28;20059;-76
2023/03/07 08:23:28;;;;;;;10.63;4.45;;;;;;;;;;5096294;28;20035;-74
2023/03/07 08:25:54;;;;;;;7.78;3.92;;;;;;;;;;5097671;28;20020;-75
2023/03/07 08:28:20;;;;;;;9.23;4.45;;;;;;;;;;5096578;28;20486;-75
2023/03/07 08:30:46;;;;;;;8.60;4.35;;;;;;;;;;5100342;28;20016;-74
2023/03/07 08:33:13;;;;;;;6.82;3.78;;;;;;;;;;5096515;28;20369;-74
2023/03/07 08:35:39;;;;;;;8.35;4.15;;;;;;;;;;5097173;28;20043;-74
2023/03/07 08:38:05;;;;;;;10.93;4.55;;;;;;;;;;5097401;28;20046;-74
2023/03/07 08:40:31;;;;;;;9.60;4.10;;;;;;;;;;5096878;28;20026;-74
2023/03/07 08:42:58;;;;;;;7.28;3.83;;;;;;;;;;5096824;28;20075;-74
2023/03/07 08:45:24;;;;;;;9.43;4.10;;;;;;;;;;5096548;28;20024;-75
2023/03/07 08:47:54;;;;;;;10.30;5.32;;;;;;;;;;5096803;28;20024;-75
2023/03/07 08:50:20;;;;;;;9.15;4.45;;;;;;;;;;5095377;28;20016;-74
2023/03/07 08:52:46;;;;;;;8.85;3.88;;;;;;;;;;5096423;28;20028;-75
2023/03/07 08:55:12;;;;;;;9.55;4.70;;;;;;;;;;5095106;28;20045;-75
2023/03/07 08:57:38;;;;;;;11.13;4.95;;;;;;;;;;5096409;28;20032;-75
2023/03/07 09:00:08;;;;;;;12.57;5.25;;;;;;;;;;5096105;28;20020;-75
2023/03/07 09:02:34;;;;;;;11.77;5.07;;;;;;;;;;5095061;28;20059;-75
2023/03/07 09:05:00;;;;;;;9.98;5.00;;;;;;;;;;5096295;28;20024;-76
2023/03/07 09:07:26;;;;;;;10.50;4.22;;;;;;;;;;5099428;28;20084;-75
2023/03/07 09:09:52;;;;;;;9.95;4.88;;;;;;;;;;5096154;28;20055;-75
2023/03/07 09:12:18;;;;;;;12.27;5.03;;;;;;;;;;5096085;28;20047;-76
2023/03/07 09:14:44;;;;;;;7.93;4.18;;;;;;;;;;5096704;28;20024;-75
2023/03/07 09:17:10;;;;;;;11.18;5.53;;;;;;;;;;5095643;28;20052;-75
2023/03/07 09:19:36;;;;;;;9.40;5.22;;;;;;;;;;5094971;28;20449;-76
2023/03/07 09:22:03;;;;;;;8.82;4.57;;;;;;;;;;5096858;28;20488;-75
2023/03/07 09:24:29;;;;;;;10.85;4.95;;;;;;;;;;5096032;28;20059;-75
2023/03/07 09:26:55;;;;;;;12.23;4.53;;;;;;;;;;5094505;28;20437;-75
2023/03/07 09:29:21;;;;;;;14.73;6.03;;;;;;;;;;5094410;28;20020;-75
2023/03/07 09:31:47;;;;;;;12.68;6.25;;;;;;;;;;5095950;28;20407;-75
2023/03/07 09:34:14;;;;;;;12.50;5.35;;;;;;;;;;5095800;28;20057;-75
2023/03/07 09:36:40;;;;;;;10.13;5.00;;;;;;;;;;5095672;28;20020;-75
2023/03/07 09:39:06;;;;;;;12.27;5.38;;;;;;;;;;5096725;28;20023;-76
2023/03/07 09:41:50;;;;;;;10.35;5.20;;;;;;;;;;5103063;28;20079;-76
2023/03/07 09:44:22;;;;;;;11.90;5.05;;;;;;;;;;5106418;28;20085;-76
2023/03/07 09:46:54;;;;;;;10.18;4.50;;;;;;;;;;5106247;28;20022;-76
2023/03/07 09:49:24;;;;;;;13.70;4.55;;;;;;;;;;5104170;28;20067;-77
2023/03/07 09:51:51;;;;;;;12.30;5.47;;;;;;;;;;5102499;28;20016;-76
2023/03/07 09:54:26;;;;;;;9.77;4.90;;;;;;;;;;5095108;28;20035;-76
2023/03/07 09:56:58;;;;;;;13.93;6.32;;;;;;;;;;5095982;28;20027;-76
2023/03/07 09:59:30;;;;;;;11.23;4.53;;;;;;;;;;5095959;28;20472;-76
2023/03/07 10:02:08;;;;;;;10.70;4.80;;;;;;;;;;5096207;28;20032;-76
2023/03/07 10:04:40;;;;;;;9.05;4.30;;;;;;;;;;5097350;28;20327;-76
2023/03/07 10:07:09;;;;;;;8.93;5.22;;;;;;;;;;5096206;28;20464;-75
2023/03/07 10:09:35;;;;;;;10.95;4.93;;;;;;;;;;5096043;28;20021;-76
2023/03/07 10:12:19;;;;;;;9.10;4.55;;;;;;;;;;5094148;28;20127;-75
2023/03/07 10:14:45;;;;;;;6.55;3.85;;;;;;;;;;5096786;28;20107;-76
2023/03/07 10:17:29;;;;;;;9.07;4.75;;;;;;;;;;5099140;28;20288;-76
2023/03/07 10:20:05;;;;;;;14.20;5.88;;;;;;;;;;5101497;28;20024;-76
2023/03/07 10:22:50;;;;;;;13.18;5.70;;;;;;;;;;5105479;28;20219;-77
2023/03/07 10:25:31;;;;;;;10.50;4.55;;;;;;;;;;5097540;28;20089;-77
2023/03/07 10:28:11;;;;;;;9.02;5.13;;;;;;;;;;5093049;28;20480;-75
2023/03/07 10:30:37;;;;;;;9.57;5.05;;;;;;;;;;5093366;28;20035;-77
2023/03/07 10:33:05;;;;;;;8.25;4.10;;;;;;;;;;5094551;28;20020;-75
2023/03/07 10:35:41;;;;;;;14.32;6.25;;;;;;;;;;5095043;28;20024;-75
2023/03/07 10:38:13;;;;;;;9.68;5.00;;;;;;;;;;5094542;28;20032;-75
2023/03/07 10:40:43;;;;;;;12.50;6.07;;;;;;;;;;5094421;28;20498;-75
2023/03/07 10:43:35;;;;;;;10.63;4.50;;;;;;;;;;5092932;28;20065;-74
2023/03/07 10:46:15;;;;;;;7.85;4.43;;;;;;;;;;5089509;28;20421;-75
2023/03/07 10:48:42;;;;;;;12.82;5.60;;;;;;;;;;5093159;28;20058;-76
2023/03/07 10:51:31;;;;;;;10.93;5.28;;;;;;;;;;5094751;28;20028;-75
2023/03/07 10:53:57;;;;;;;9.10;5.50;;;;;;;;;;5094524;28;20034;-76
2023/03/07 10:56:23;;;;;;;11.60;4.82;;;;;;;;;;5093265;28;20031;-75
2023/03/07 10:58:58;;;;;;;14.18;5.30;;;;;;;;;;5093269;28;20425;-75
2023/03/07 11:01:26;;;;;;;13.40;5.75;;;;;;;;;;5094504;28;20035;-76
2023/03/07 11:03:59;;;;;;;12.05;5.05;;;;;;;;;;5093912;28;20111;-75
2023/03/07 11:06:27;;;;;;;10.60;5.57;;;;;;;;;;5092491;28;20081;-75
2023/03/07 11:08:55;;;;;;;10.55;5.15;;;;;;;;;;5093811;28;20021;-76
2023/03/07 11:11:25;;;;;;;11.85;4.82;;;;;;;;;;5092753;28;20515;-75
2023/03/07 11:14:08;;;;;;;9.27;4.85;;;;;;;;;;5092284;28;20035;-75
2023/03/07 11:16:39;;;;;;;10.68;5.30;;;;;;;;;;5093578;28;20047;-75
2023/03/07 11:19:23;;;;;;;8.95;5.03;;;;;;;;;;5092441;28;20068;-75
2023/03/07 11:21:53;;;;;;;9.40;5.75;;;;;;;;;;5092229;28;20028;-75
2023/03/07 11:24:30;;;;;;;13.55;6.00;;;;;;;;;;5093613;28;20388;-75
2023/03/07 11:26:57;;;;;;;8.88;3.97;;;;;;;;;;5092263;28;20068;-77
2023/03/07 11:29:24;;;;;;;15.70;6.65;;;;;;;;;;5093675;28;20385;-76
2023/03/07 11:32:09;;;;;;;11.25;4.60;;;;;;;;;;5092361;28;20476;-76
2023/03/07 11:34:44;;;;;;;9.77;5.60;;;;;;;;;;5092216;28;20024;-77
2023/03/07 11:37:14;;;;;;;11.25;5.50;;;;;;;;;;5092088;28;20085;-75
2023/03/07 11:39:44;;;;;;;9.80;5.78;;;;;;;;;;5093358;28;20039;-76
2023/03/07 11:42:17;;;;;;;8.85;4.53;;;;;;;;;;5093426;28;20032;-75
2023/03/07 11:44:52;;;;;;;9.50;5.15;;;;;;;;;;5091947;28;20027;-75
2023/03/07 11:47:24;;;;;;;12.20;5.97;;;;;;;;;;5096520;28;20028;-75
2023/03/07 11:49:56;;;;;;;10.57;5.78;;;;;;;;;;5095848;28;20020;-76
2023/03/07 11:52:31;;;;;;;12.25;5.45;;;;;;;;;;5094200;28;20031;-78
2023/03/07 11:55:10;;;;;;;9.50;5.35;;;;;;;;;;5094587;28;20361;-77
2023/03/07 11:57:55;;;;;;;10.95;4.43;;;;;;;;;;5092184;28;20020;-76
2023/03/07 12:00:31;;;;;;;9.60;4.13;;;;;;;;;;5094939;28;20035;-77
2023/03/07 12:03:03;;;;;;;6.47;4.15;;;;;;;;;;5097729;28;20396;-75
2023/03/07 12:05:48;;;;;;;8.77;4.40;;;;;;;;;;5097517;28;20047;-74
2023/03/07 12:08:29;;;;;;;10.90;4.95;;;;;;;;;;5093472;28;20411;-75
2023/03/07 12:11:08;;;;;;;8.95;4.78;;;;;;;;;;5092897;28;20126;-75
2023/03/07 12:13:43;;;;;;;18.30;6.10;;;;;;;;;;5094395;28;20392;-74
2023/03/07 12:16:26;;;;;;;11.27;5.57;;;;;;;;;;5096516;28;20131;-75
2023/03/07 12:19:11;;;;;;;11.18;5.15;;;;;;;;;;5092027;28;20049;-75
2023/03/07 12:21:52;;;;;;;16.83;4.00;;;;;;;;;;5092020;28;20028;-76
2023/03/07 12:24:22;;;;;;;15.07;6.38;;;;;;;;;;5093843;28;20085;-76
2023/03/07 12:26:53;;;;;;;9.32;4.80;;;;;;;;;;5092011;28;20079;-83
2023/03/07 12:29:26;;;;;;;11.40;5.25;;;;;;;;;;5095490;28;20408;-77
2023/03/07 12:31:54;;;;;;;16.17;5.53;;;;;;;;;;5094809;28;20051;-78
2023/03/07 12:34:28;;;;;;;9.77;5.57;;;;;;;;;;5093523;28;20020;-76
2023/03/07 12:37:05;;;;;;;10.80;6.32;;;;;;;;;;5093493;28;20408;-77
2023/03/07 12:39:43;;;;;;;12.18;6.10;;;;;;;;;;5092614;28;20028;-76
2023/03/07 12:42:30;;;;;;;10.15;5.20;;;;;;;;;;5094594;28;20044;-75
2023/03/07 12:44:56;;;;;;;11.13;5.15;;;;;;;;;;5097232;28;20057;-76
2023/03/07 12:47:29;;;;;;;7.97;4.68;;;;;;;;;;5095345;28;20101;-75
2023/03/07 12:50:24;;;;;;;6.47;4.03;;;;;;;;;;5096922;28;20047;-77
2023/03/07 12:52:54;;;;;;;13.20;5.28;;;;;;;;;;5084509;28;20119;-75
2023/03/07 12:55:23;;;;;;;12.77;5.70;;;;;;;;;;5096806;28;20154;-76
2023/03/07 12:58:11;;;;;;;9.63;5.35;;;;;;;;;;5097567;28;20028;-80
2023/03/07 13:00:42;;;;;;;12.18;5.72;;;;;;;;;;5084094;28;20039;-76
2023/03/07 13:03:10;;;;;;;11.65;5.47;;;;;;;;;;5096744;28;20042;-79
2023/03/07 13:05:37;;;;;;;14.90;6.38;;;;;;;;;;5097024;28;20028;-77
2023/03/07 13:08:08;;;;;;;13.15;5.50;;;;;;;;;;5096244;28;20028;-84
2023/03/07 13:10:34;;;;;;;9.43;5.55;;;;;;;;;;5097085;28;20020;-77
2023/03/07 13:13:00;;;;;;;14.75;6.68;;;;;;;;;;5096184;28;20016;-76
2023/03/07 13:15:26;;;;;;;11.50;5.35;;;;;;;;;;5094975;28;20119;-77
2023/03/07 13:17:57;;;;;;;13.15;4.75;;;;;;;;;;5096305;28;20023;-75
2023/03/07 13:20:30;;;;;;;12.02;6.05;;;;;;;;;;5096666;28;20020;-76
2023/03/07 13:22:58;;;;;;;9.25;6.07;;;;;;;;;;5096358;28;20038;-75
2023/03/07 13:26:02;;;;;;;15.05;6.40;;;;;;;;;;5097123;28;20031;-76
2023/03/07 13:28:50;;;;;;;10.23;6.65;;;;;;;;;;5017813;28;20120;-76
2023/03/07 13:31:25;;;;;;;11.40;6.13;;;;;;;;;;5034228;28;20112;-77
2023/03/07 13:33:52;;;;;;;12.55;5.65;;;;;;;;;;5076589;28;20059;-77
2023/03/07 13:36:37;;;;;;;11.23;5.78;;;;;;;;;;5095909;28;20027;-78
2023/03/07 13:39:04;;;;;;;15.55;7.45;;;;;;;;;;5096955;28;20038;-77
2023/03/07 13:41:44;;;;;;;11.93;5.68;;;;;;;;;;5094752;28;20107;-77
2023/03/07 13:44:26;;;;;;;14.68;6.93;;;;;;;;;;5094827;28;20092;-76
2023/03/07 13:46:54;;;;;;;12.60;5.63;;;;;;;;;;5094339;28;20107;-77
2023/03/07 13:49:40;;;;;;;13.60;5.40;;;;;;;;;;5094015;28;20123;-75
2023/03/07 13:52:30;;;;;;;14.90;6.57;;;;;;;;;;5094340;28;20115;-76
2023/03/07 13:54:56;;;;;;;;;;;;;;;;;;5095764;28;20491;-77
2023/03/07 13:57:23;;;;;;;14.02;5.72;;;;;;;;;;5095297;28;19904;-76
2023/03/07 13:59:49;;;;;;;13.57;5.63;;;;;;;;;;5095231;28;20656;-76
2023/03/07 14:02:17;;;;;;;11.55;5.95;;;;;;;;;;5093798;28;20122;-76
2023/03/07 14:04:56;;;;;;;12.32;6.68;;;;;;;;;;5094229;28;20108;-75
2023/03/07 14:07:25;;;;;;;12.98;6.57;;;;;;;;;;5093673;28;20369;-75
2023/03/07 14:09:53;;;;;;;18.38;5.45;;;;;;;;;;5095056;28;20042;-75
2023/03/07 14:12:19;;;;;;;14.65;5.10;;;;;;;;;;5093640;28;20032;-75
2023/03/07 14:14:55;;;;;;;11.75;6.40;;;;;;;;;;5093644;28;20039;-76
2023/03/07 14:17:26;;;;;;;13.63;6.72;;;;;;;;;;5095171;28;20124;-77
2023/03/07 14:19:53;;;;;;;12.18;5.47;;;;;;;;;;5093298;28;20035;-76
2023/03/07 14:22:25;;;;;;;13.73;6.03;;;;;;;;;;5093413;28;20169;-76
2023/03/07 14:25:10;;;;;;;12.05;6.00;;;;;;;;;;5094744;28;20020;-76
2023/03/07 14:28:05;;;;;;;15.02;6.53;;;;;;;;;;5093326;28;20380;-76
2023/03/07 14:30:33;;;;;;;15.65;6.20;;;;;;;;;;5076290;28;20036;-76
2023/03/07 14:33:00;;;;;;;9.80;5.53;;;;;;;;;;5093551;28;20056;-76